createdAt,value
2022-11-28T00:00:33.454Z,4.60
2022-11-28T00:03:18.677Z,4.60
2022-11-28T00:06:05.944Z,4.80
2022-11-28T00:08:51.238Z,4.70
2022-11-28T00:11:38.662Z,4.80
2022-11-28T00:14:24.073Z,4.60
2022-11-28T00:17:09.514Z,4.70
2022-11-28T00:19:54.886Z,4.70
2022-11-28T00:22:40.535Z,4.80
2022-11-28T00:25:25.753Z,4.90
2022-11-28T00:28:11.308Z,5.00
2022-11-28T00:30:56.730Z,5.00
2022-11-28T00:33:42.432Z,4.90
2022-11-28T00:36:29.486Z,4.80
2022-11-28T00:39:16.219Z,4.50
2022-11-28T00:42:01.214Z,4.50
2022-11-28T00:44:47.173Z,4.50
2022-11-28T00:47:32.864Z,4.70
2022-11-28T00:50:18.436Z,4.80
2022-11-28T00:53:03.785Z,4.90
2022-11-28T00:55:49.360Z,5.00
2022-11-28T00:58:35.718Z,5.10
2022-11-28T01:01:22.667Z,5.00
2022-11-28T01:04:11.832Z,5.00
2022-11-28T01:06:57.740Z,4.90
2022-11-28T01:09:42.894Z,4.90
2022-11-28T01:12:28.224Z,4.80
2022-11-28T01:15:14.245Z,4.70
2022-11-28T01:17:59.766Z,4.70
2022-11-28T01:20:45.063Z,4.70
2022-11-28T01:23:30.565Z,4.80
2022-11-28T01:26:23.042Z,4.80
2022-11-28T01:29:09.526Z,4.90
2022-11-28T01:31:55.180Z,4.90
2022-11-28T01:34:41.001Z,4.90
2022-11-28T01:37:29.967Z,5.00
2022-11-28T01:40:15.062Z,5.00
2022-11-28T01:43:00.398Z,4.90
2022-11-28T01:45:46.266Z,4.80
2022-11-28T01:48:41.818Z,4.80
2022-11-28T01:51:27.594Z,4.80
2022-11-28T01:54:13.853Z,4.80
2022-11-28T01:57:03.470Z,4.80
2022-11-28T01:59:56.130Z,4.80
2022-11-28T02:03:26.294Z,4.80
2022-11-28T02:06:13.342Z,4.70
2022-11-28T02:08:58.829Z,4.70
2022-11-28T02:12:24.961Z,4.80
2022-11-28T02:15:20.608Z,4.70
2022-11-28T02:18:18.126Z,4.70
2022-11-28T02:21:24.854Z,4.70
2022-11-28T02:24:32.035Z,4.70
2022-11-28T02:27:47.786Z,4.50
2022-11-28T02:30:41.887Z,4.60
2022-11-28T02:33:48.720Z,4.50
2022-11-28T02:36:40.923Z,4.50
2022-11-28T02:39:59.542Z,4.60
2022-11-28T02:43:12.524Z,4.60
2022-11-28T02:46:09.705Z,4.70
2022-11-28T02:49:07.922Z,4.90
2022-11-28T02:52:01.315Z,5.00
2022-11-28T02:54:48.752Z,5.10
2022-11-28T02:57:49.125Z,5.20
2022-11-28T03:00:36.834Z,5.10
2022-11-28T03:03:22.174Z,4.90
2022-11-28T03:06:19.468Z,4.90
2022-11-28T03:09:30.370Z,5.00
2022-11-28T03:12:41.697Z,4.90
2022-11-28T03:15:39.080Z,4.90
2022-11-28T03:18:31.931Z,5.00
2022-11-28T03:21:40.511Z,5.00
2022-11-28T03:24:54.615Z,5.00
2022-11-28T03:27:48.073Z,4.90
2022-11-28T03:30:48.810Z,4.90
2022-11-28T03:33:42.042Z,5.00
2022-11-28T03:36:44.730Z,5.00
2022-11-28T03:39:35.672Z,5.20
2022-11-28T03:42:24.001Z,5.00
2022-11-28T03:45:18.700Z,4.90
2022-11-28T03:48:12.824Z,4.90
2022-11-28T03:51:07.210Z,4.80
2022-11-28T03:54:07.339Z,4.70
2022-11-28T03:57:00.012Z,4.70
2022-11-28T03:59:51.164Z,4.80
2022-11-28T04:02:48.549Z,4.90
2022-11-28T04:05:49.451Z,5.00
2022-11-28T04:08:43.002Z,5.00
2022-11-28T04:11:39.067Z,4.90
2022-11-28T04:14:31.603Z,4.90
2022-11-28T04:17:25.334Z,5.10
2022-11-28T04:20:15.201Z,5.10
2022-11-28T04:23:06.916Z,5.10
2022-11-28T04:26:14.165Z,5.20
2022-11-28T04:29:01.071Z,5.20
2022-11-28T04:31:48.894Z,5.30
2022-11-28T04:34:36.167Z,5.30
2022-11-28T04:37:24.952Z,5.40
2022-11-28T04:40:11.844Z,5.40
2022-11-28T04:43:02.264Z,5.40
2022-11-28T04:45:53.049Z,5.50
2022-11-28T04:48:38.453Z,5.60
2022-11-28T04:51:33.982Z,5.70
2022-11-28T04:54:29.234Z,5.70
2022-11-28T04:57:21.722Z,5.70
2022-11-28T05:00:10.617Z,5.60
2022-11-28T05:02:56.784Z,5.60
2022-11-28T05:05:47.522Z,5.70
2022-11-28T05:08:32.666Z,5.60
2022-11-28T05:11:18.170Z,5.60
2022-11-28T05:14:03.693Z,5.60
2022-11-28T05:16:49.500Z,5.50
2022-11-28T05:19:35.142Z,5.50
2022-11-28T05:22:20.442Z,5.40
2022-11-28T05:25:06.309Z,5.30
2022-11-28T05:27:51.598Z,5.20
2022-11-28T05:30:36.946Z,5.20
2022-11-28T05:33:22.232Z,5.30
2022-11-28T05:36:13.107Z,5.30
2022-11-28T05:38:58.831Z,5.20
2022-11-28T05:41:44.305Z,5.20
2022-11-28T05:44:29.722Z,5.20
2022-11-28T05:47:15.828Z,5.40
2022-11-28T05:50:01.108Z,5.50
2022-11-28T05:52:46.127Z,5.50
2022-11-28T05:55:31.617Z,5.40
2022-11-28T05:58:16.913Z,5.40
2022-11-28T06:01:17.313Z,5.40
2022-11-28T06:04:02.762Z,5.50
2022-11-28T06:06:50.277Z,5.60
2022-11-28T06:09:35.887Z,5.60
2022-11-28T06:12:21.335Z,5.60
2022-11-28T06:15:07.356Z,5.50
2022-11-28T06:17:52.735Z,5.50
2022-11-28T06:20:38.033Z,5.50
2022-11-28T06:23:24.661Z,5.60
2022-11-28T06:26:16.510Z,5.70
2022-11-28T06:29:01.691Z,5.70
2022-11-28T06:31:47.337Z,5.70
2022-11-28T06:34:32.808Z,5.60
2022-11-28T06:37:18.094Z,5.50
2022-11-28T06:40:04.751Z,5.60
2022-11-28T06:42:51.069Z,5.50
2022-11-28T06:45:36.310Z,5.50
2022-11-28T06:48:22.086Z,5.50
2022-11-28T06:51:07.812Z,5.20
2022-11-28T06:53:54.371Z,5.10
2022-11-28T06:56:41.426Z,5.20
2022-11-28T06:59:26.792Z,5.20
2022-11-28T07:02:12.164Z,5.20
2022-11-28T07:04:57.529Z,5.20
2022-11-28T07:07:53.675Z,5.20
2022-11-28T07:10:39.052Z,5.30
2022-11-28T07:13:24.706Z,5.30
2022-11-28T07:16:15.909Z,5.20
2022-11-28T07:19:01.482Z,5.50
2022-11-28T07:21:47.097Z,5.40
2022-11-28T07:24:33.383Z,5.40
2022-11-28T07:27:19.367Z,5.40
2022-11-28T07:30:05.417Z,5.50
2022-11-28T07:32:50.861Z,5.50
2022-11-28T07:35:36.075Z,5.60
2022-11-28T07:38:21.365Z,5.70
2022-11-28T07:41:09.375Z,5.70
2022-11-28T07:43:57.094Z,5.70
2022-11-28T07:46:42.599Z,5.50
2022-11-28T07:49:28.202Z,5.60
2022-11-28T07:52:13.585Z,6.30
2022-11-28T07:54:59.005Z,6.00
2022-11-28T07:57:44.375Z,5.60
2022-11-28T08:00:29.762Z,5.30
2022-11-28T08:03:14.967Z,4.90
2022-11-28T08:06:03.157Z,4.70
2022-11-28T08:08:49.875Z,4.70
2022-11-28T08:11:35.532Z,4.70
2022-11-28T08:14:20.834Z,4.70
2022-11-28T08:17:06.150Z,4.50
2022-11-28T08:19:51.466Z,4.40
2022-11-28T08:22:36.854Z,4.50
2022-11-28T08:25:22.437Z,4.60
2022-11-28T08:28:07.846Z,4.60
2022-11-28T08:30:53.237Z,4.60
2022-11-28T08:33:39.586Z,4.80
2022-11-28T08:36:25.349Z,4.90
2022-11-28T08:39:27.005Z,4.70
2022-11-28T08:42:12.584Z,4.70
2022-11-28T08:44:57.951Z,4.80
2022-11-28T08:47:43.391Z,4.70
2022-11-28T08:50:28.953Z,4.80
2022-11-28T08:53:18.488Z,4.90
2022-11-28T08:56:04.393Z,4.90
2022-11-28T08:58:49.858Z,5.00
2022-11-28T09:01:35.150Z,5.10
2022-11-28T09:04:21.316Z,5.10
2022-11-28T09:07:06.615Z,5.00
2022-11-28T09:09:51.894Z,4.80
2022-11-28T09:12:37.117Z,4.90
2022-11-28T09:15:22.292Z,5.00
2022-11-28T09:18:07.921Z,5.00
2022-11-28T09:20:58.758Z,4.90
2022-11-28T09:23:44.709Z,5.00
2022-11-28T09:26:30.265Z,5.10
2022-11-28T09:29:15.770Z,5.10
2022-11-28T09:32:00.840Z,5.10
2022-11-28T09:34:46.523Z,5.10
2022-11-28T09:37:32.015Z,5.00
2022-11-28T09:40:23.768Z,5.10
2022-11-28T09:43:42.570Z,5.10
2022-11-28T09:46:33.027Z,5.10
2022-11-28T09:49:25.329Z,5.00
2022-11-28T09:52:36.345Z,5.00
2022-11-28T09:55:43.447Z,5.00
2022-11-28T09:58:34.782Z,5.10
2022-11-28T10:01:38.044Z,5.00
2022-11-28T10:04:45.496Z,5.00
2022-11-28T10:07:54.621Z,5.00
2022-11-28T10:10:50.313Z,5.10
2022-11-28T10:17:17.004Z,5.20
2022-11-28T10:20:09.107Z,5.30
2022-11-28T10:23:32.617Z,5.50
2022-11-28T10:26:41.192Z,5.60
2022-11-28T10:29:55.103Z,5.40
2022-11-28T10:32:45.043Z,5.40
2022-11-28T10:35:53.757Z,5.40
2022-11-28T10:38:39.164Z,5.30
2022-11-28T10:41:36.845Z,5.30
2022-11-28T10:44:34.982Z,5.40
2022-11-28T10:48:01.095Z,5.30
2022-11-28T10:51:15.904Z,5.30
2022-11-28T10:54:22.147Z,5.30
2022-11-28T10:57:15.561Z,5.40
2022-11-28T11:00:14.533Z,5.60
2022-11-28T11:03:02.401Z,5.60
2022-11-28T11:05:47.793Z,5.60
2022-11-28T11:08:38.876Z,5.70
2022-11-28T11:11:37.123Z,5.60
2022-11-28T11:14:36.964Z,5.60
2022-11-28T11:17:35.911Z,5.70
2022-11-28T11:20:33.940Z,5.70
2022-11-28T11:23:22.027Z,5.70
2022-11-28T11:26:10.341Z,5.80
2022-11-28T11:28:56.782Z,5.70
2022-11-28T11:31:51.687Z,5.70
2022-11-28T11:34:44.127Z,5.70
2022-11-28T11:37:36.668Z,5.70
2022-11-28T11:40:28.895Z,5.70
2022-11-28T11:43:28.146Z,5.80
2022-11-28T11:46:15.674Z,5.80
2022-11-28T11:49:00.686Z,5.90
2022-11-28T11:51:56.657Z,5.90
2022-11-28T11:54:57.336Z,6.00
2022-11-28T11:57:53.533Z,6.00
2022-11-28T12:00:41.173Z,6.20
2022-11-28T12:03:33.632Z,6.30
2022-11-28T12:06:27.907Z,6.30
2022-11-28T12:09:41.960Z,6.50
2022-11-28T12:12:32.344Z,6.40
2022-11-28T12:15:39.402Z,6.50
2022-11-28T12:18:46.299Z,6.60
2022-11-28T12:21:57.570Z,6.60
2022-11-28T12:25:25.651Z,6.40
2022-11-28T12:28:28.846Z,6.40
2022-11-28T12:31:47.824Z,6.70
2022-11-28T12:35:02.475Z,6.90
2022-11-28T12:38:13.249Z,6.90
2022-11-28T12:41:11.763Z,6.70
2022-11-28T12:44:05.683Z,6.80
2022-11-28T12:47:15.110Z,6.80
2022-11-28T12:50:26.102Z,6.70
2022-11-28T12:53:36.498Z,6.70
2022-11-28T12:56:21.598Z,6.90
2022-11-28T12:59:28.451Z,7.00
2022-11-28T13:02:26.397Z,7.10
2022-11-28T13:05:36.688Z,7.10
2022-11-28T13:08:37.280Z,7.10
2022-11-28T13:11:48.942Z,7.20
2022-11-28T13:14:56.799Z,7.10
2022-11-28T13:17:57.283Z,7.00
2022-11-28T13:20:48.437Z,7.00
2022-11-28T13:23:53.768Z,6.80
2022-11-28T13:26:58.972Z,6.60
2022-11-28T13:29:52.001Z,6.40
2022-11-28T13:33:28.460Z,6.40
2022-11-28T13:40:12.089Z,6.60
2022-11-28T13:43:48.112Z,6.50
2022-11-28T13:46:33.871Z,6.70
2022-11-28T13:49:23.084Z,6.60
2022-11-28T13:52:32.329Z,6.70
2022-11-28T13:55:39.040Z,6.70
2022-11-28T13:58:28.664Z,6.80
2022-11-28T14:01:17.764Z,6.80
2022-11-28T14:04:15.666Z,6.90
2022-11-28T14:07:04.155Z,6.80
2022-11-28T14:10:04.055Z,6.90
2022-11-28T14:13:23.049Z,6.90
2022-11-28T14:16:46.854Z,6.80
2022-11-28T14:20:06.554Z,6.80
2022-11-28T14:23:10.867Z,6.70
2022-11-28T14:25:56.638Z,6.70
2022-11-28T14:28:44.537Z,6.70
2022-11-28T14:31:32.046Z,6.70
2022-11-28T14:34:39.633Z,6.60
2022-11-28T14:37:34.724Z,6.60
2022-11-28T14:41:02.952Z,6.60
2022-11-28T14:43:48.689Z,6.60
2022-11-28T14:46:34.182Z,6.60
2022-11-28T14:49:21.462Z,6.60
2022-11-28T14:52:37.025Z,6.60
2022-11-28T14:55:21.789Z,6.60
2022-11-28T14:58:16.312Z,6.40
2022-11-28T15:01:11.507Z,6.30
2022-11-28T15:04:28.541Z,6.20
2022-11-28T15:07:41.074Z,6.10
2022-11-28T15:10:31.997Z,6.10
2022-11-28T15:13:45.489Z,6.20
2022-11-28T15:16:32.495Z,6.20
2022-11-28T15:19:29.058Z,6.10
2022-11-28T15:22:47.106Z,6.00
2022-11-28T15:25:37.366Z,5.90
2022-11-28T15:28:25.362Z,5.90
2022-11-28T15:31:21.642Z,5.90
2022-11-28T15:34:09.964Z,5.90
2022-11-28T15:36:58.675Z,5.80
2022-11-28T15:39:47.772Z,5.90
2022-11-28T15:42:34.936Z,5.80
2022-11-28T15:45:28.936Z,5.70
2022-11-28T15:48:50.649Z,5.60
2022-11-28T15:51:36.113Z,5.70
2022-11-28T15:54:33.179Z,5.70
2022-11-28T15:57:21.316Z,5.70
2022-11-28T16:00:12.121Z,5.70
2022-11-28T16:02:57.566Z,5.60
2022-11-28T16:05:43.635Z,5.70
2022-11-28T16:08:36.798Z,5.60
2022-11-28T16:11:24.065Z,5.60
2022-11-28T16:14:10.897Z,5.80
2022-11-28T16:16:57.953Z,5.90
2022-11-28T16:19:44.308Z,5.60
2022-11-28T16:22:36.213Z,5.70
2022-11-28T16:25:26.398Z,5.70
2022-11-28T16:28:40.736Z,5.70
2022-11-28T16:31:27.414Z,5.70
2022-11-28T16:34:14.667Z,5.50
2022-11-28T16:36:59.754Z,5.50
2022-11-28T16:39:45.477Z,5.40
2022-11-28T16:42:32.336Z,5.50
2022-11-28T16:45:26.829Z,5.50
2022-11-28T16:48:19.106Z,5.50
2022-11-28T16:51:14.700Z,5.50
2022-11-28T16:54:21.212Z,5.50
2022-11-28T16:57:16.664Z,5.50
2022-11-28T17:00:02.066Z,5.70
2022-11-28T17:02:52.794Z,5.70
2022-11-28T17:05:38.212Z,5.80
2022-11-28T17:08:27.545Z,5.90
2022-11-28T17:11:18.105Z,5.90
2022-11-28T17:14:08.676Z,5.80
2022-11-28T17:16:57.022Z,5.80
2022-11-28T17:19:42.981Z,5.70
2022-11-28T17:22:40.907Z,5.70
2022-11-28T17:25:26.579Z,5.80
2022-11-28T17:28:17.309Z,5.90
2022-11-28T17:31:06.146Z,6.00
2022-11-28T17:33:51.629Z,5.90
2022-11-28T17:36:37.038Z,5.90
2022-11-28T17:39:22.608Z,5.90
2022-11-28T17:42:07.962Z,5.90
2022-11-28T17:44:53.430Z,5.90
2022-11-28T17:47:39.255Z,5.90
2022-11-28T17:50:24.541Z,5.80
2022-11-28T17:53:11.937Z,5.80
2022-11-28T17:55:59.682Z,5.70
2022-11-28T17:58:45.264Z,5.80
2022-11-28T18:01:31.455Z,5.90
2022-11-28T18:04:17.328Z,5.90
2022-11-28T18:07:02.749Z,5.90
2022-11-28T18:09:48.326Z,5.90
2022-11-28T18:12:33.647Z,5.90
2022-11-28T18:15:19.017Z,5.80
2022-11-28T18:18:04.522Z,5.70
2022-11-28T18:20:49.929Z,5.70
2022-11-28T18:23:39.442Z,5.80
2022-11-28T18:26:26.119Z,5.90
2022-11-28T18:29:11.467Z,5.90
2022-11-28T18:31:57.037Z,5.80
2022-11-28T18:34:42.239Z,5.80
2022-11-28T18:37:27.821Z,6.00
2022-11-28T18:40:13.512Z,5.90
2022-11-28T18:42:58.970Z,5.70
2022-11-28T18:45:44.463Z,5.70
2022-11-28T18:48:29.802Z,5.70
2022-11-28T18:51:21.242Z,5.70
2022-11-28T18:54:06.723Z,5.60
2022-11-28T18:56:51.789Z,5.60
2022-11-28T18:59:37.255Z,5.60
2022-11-28T19:02:22.941Z,5.60
2022-11-28T19:05:08.694Z,5.60
2022-11-28T19:07:57.283Z,5.70
2022-11-28T19:10:44.238Z,5.60
2022-11-28T19:13:29.612Z,5.60
2022-11-28T19:16:17.587Z,5.70
2022-11-28T19:19:05.029Z,5.70
2022-11-28T19:21:50.838Z,5.80
2022-11-28T19:24:37.826Z,5.80
2022-11-28T19:27:23.245Z,5.60
2022-11-28T19:30:08.952Z,5.60
2022-11-28T19:32:56.232Z,5.50
2022-11-28T19:35:41.472Z,5.50
2022-11-28T19:38:27.070Z,5.60
2022-11-28T19:41:15.480Z,5.80
2022-11-28T19:44:01.394Z,5.80
2022-11-28T19:46:47.780Z,5.70
2022-11-28T19:49:33.257Z,5.60
2022-11-28T19:52:18.689Z,5.70
2022-11-28T19:55:04.318Z,5.80
2022-11-28T19:57:49.789Z,5.80
2022-11-28T20:00:35.129Z,5.80
2022-11-28T20:03:20.542Z,5.80
2022-11-28T20:06:09.876Z,5.70
2022-11-28T20:08:59.532Z,5.70
2022-11-28T20:11:45.597Z,5.60
2022-11-28T20:14:32.256Z,5.80
2022-11-28T20:17:17.601Z,5.90
2022-11-28T20:20:03.180Z,5.60
2022-11-28T20:22:48.346Z,5.60
2022-11-28T20:25:33.851Z,5.70
2022-11-28T20:28:19.139Z,5.70
2022-11-28T20:31:05.999Z,5.60
2022-11-28T20:33:52.444Z,5.40
2022-11-28T20:36:37.910Z,5.30
2022-11-28T20:39:23.110Z,5.40
2022-11-28T20:42:09.266Z,5.60
2022-11-28T20:44:54.601Z,5.40
2022-11-28T20:47:40.090Z,5.80
2022-11-28T20:50:25.509Z,5.40
2022-11-28T20:53:10.949Z,5.50
2022-11-28T20:56:05.026Z,5.70
2022-11-28T20:58:51.026Z,5.60
2022-11-28T21:01:36.922Z,5.70
2022-11-28T21:04:22.314Z,5.80
2022-11-28T21:07:07.780Z,5.90
2022-11-28T21:09:59.776Z,6.00
2022-11-28T21:12:45.120Z,5.90
2022-11-28T21:15:30.692Z,5.90
2022-11-28T21:18:16.793Z,5.90
2022-11-28T21:21:08.176Z,5.80
2022-11-28T21:23:57.856Z,5.80
2022-11-28T21:26:48.147Z,5.80
2022-11-28T21:29:37.903Z,5.70
2022-11-28T21:32:23.356Z,5.70
2022-11-28T21:35:08.964Z,5.70
2022-11-28T21:37:54.213Z,5.70
2022-11-28T21:40:39.617Z,5.70
2022-11-28T21:43:25.285Z,5.80
2022-11-28T21:46:11.810Z,5.70
2022-11-28T21:48:58.379Z,5.90
2022-11-28T21:51:43.852Z,5.90
2022-11-28T21:54:29.225Z,5.80
2022-11-28T21:57:14.653Z,5.90
2022-11-28T22:00:01.994Z,5.90
2022-11-28T22:02:49.630Z,5.80
2022-11-28T22:05:35.361Z,5.80
2022-11-28T22:08:21.151Z,5.80
2022-11-28T22:11:11.054Z,5.70
2022-11-28T22:13:56.473Z,5.90
2022-11-28T22:16:41.750Z,5.70
2022-11-28T22:19:26.988Z,5.70
2022-11-28T22:22:12.600Z,5.70
2022-11-28T22:24:57.614Z,5.70
2022-11-28T22:27:42.969Z,5.80
2022-11-28T22:30:28.700Z,5.80
2022-11-28T22:33:14.141Z,5.90
2022-11-28T22:36:11.535Z,5.90
2022-11-28T22:38:58.097Z,5.90
2022-11-28T22:41:43.381Z,5.90
2022-11-28T22:44:28.800Z,5.90
2022-11-28T22:47:14.229Z,5.90
2022-11-28T22:50:07.034Z,5.70
2022-11-28T22:52:52.469Z,5.80
2022-11-28T22:55:37.817Z,5.70
2022-11-28T22:58:23.160Z,5.50
2022-11-28T23:01:11.208Z,5.40
2022-11-28T23:03:56.608Z,5.40
2022-11-28T23:06:42.247Z,5.50
2022-11-28T23:09:27.816Z,5.70
2022-11-28T23:12:13.153Z,5.80
2022-11-28T23:14:58.492Z,5.90
2022-11-28T23:17:43.873Z,5.80
2022-11-28T23:20:29.315Z,5.90
2022-11-28T23:23:14.677Z,5.60
2022-11-28T23:26:08.682Z,5.30
2022-11-28T23:28:54.700Z,5.20
2022-11-28T23:31:41.841Z,5.30
2022-11-28T23:34:27.161Z,5.40
2022-11-28T23:37:12.464Z,5.40
2022-11-28T23:39:57.779Z,5.50
2022-11-28T23:42:43.277Z,5.50
2022-11-28T23:45:28.563Z,5.70
2022-11-28T23:48:16.194Z,5.70
2022-11-28T23:51:01.929Z,5.80
2022-11-28T23:53:48.094Z,5.80
2022-11-28T23:56:36.021Z,5.80
2022-11-28T23:59:21.250Z,5.80
